createdAt,value
2019-02-15T00:02:03.110Z,11.38
2019-02-15T00:05:05.768Z,5.35
2019-02-15T00:08:08.559Z,4.40
2019-02-15T00:11:11.346Z,10.88
2019-02-15T00:14:14.125Z,9.63
2019-02-15T00:17:16.909Z,9.95
2019-02-15T00:20:19.688Z,8.25
2019-02-15T00:23:22.477Z,5.10
2019-02-15T00:26:25.258Z,10.40
2019-02-15T00:29:27.789Z,12.40
2019-02-15T00:32:30.826Z,11.83
2019-02-15T00:35:29.777Z,11.93
2019-02-15T00:38:32.556Z,5.85
2019-02-15T00:41:35.336Z,5.05
2019-02-15T00:44:37.862Z,9.83
2019-02-15T00:47:40.648Z,4.62
2019-02-15T00:50:43.433Z,4.22
2019-02-15T00:53:46.472Z,9.48
2019-02-15T00:56:50.280Z,9.45
2019-02-15T01:00:00.745Z,7.62
2019-02-15T01:03:03.528Z,12.78
2019-02-15T01:06:06.313Z,11.55
2019-02-15T01:09:09.104Z,12.00
2019-02-15T01:12:12.649Z,5.17
2019-02-15T01:15:15.687Z,8.88
2019-02-15T01:18:18.216Z,6.47
2019-02-15T01:21:21.003Z,13.22
2019-02-15T01:24:24.109Z,7.92
2019-02-15T01:27:26.573Z,12.13
2019-02-15T01:30:29.612Z,12.05
2019-02-15T01:33:32.654Z,11.88
2019-02-15T01:36:35.687Z,12.75
2019-02-15T01:39:38.734Z,12.80
2019-02-15T01:42:41.257Z,9.55
2019-02-15T01:45:44.042Z,8.15
2019-02-15T01:48:46.825Z,5.70
2019-02-15T01:51:49.608Z,8.18
2019-02-15T01:54:52.396Z,5.80
2019-02-15T01:57:51.339Z,11.78
2019-02-15T02:00:54.128Z,10.20
2019-02-15T02:03:57.164Z,11.28
2019-02-15T02:06:59.950Z,10.63
2019-02-15T02:10:02.738Z,11.18
2019-02-15T02:13:06.026Z,12.90
2019-02-15T02:16:08.558Z,12.98
2019-02-15T02:19:11.089Z,11.60
2019-02-15T02:22:13.864Z,5.78
2019-02-15T02:25:16.656Z,7.08
2019-02-15T02:28:19.693Z,9.98
2019-02-15T02:31:22.517Z,10.80
2019-02-15T02:34:25.261Z,13.45
2019-02-15T02:37:28.815Z,12.40
2019-02-15T02:40:31.341Z,6.22
2019-02-15T02:43:34.125Z,7.90
2019-02-15T02:46:36.393Z,7.92
2019-02-15T02:49:38.925Z,13.30
2019-02-15T02:52:42.233Z,12.55
2019-02-15T02:55:44.754Z,13.18
2019-02-15T02:58:47.530Z,8.30
2019-02-15T03:01:50.324Z,6.35
2019-02-15T03:04:53.101Z,12.98
2019-02-15T03:07:55.625Z,8.80
2019-02-15T03:10:58.921Z,7.03
2019-02-15T03:14:11.183Z,6.60
2019-02-15T03:17:05.771Z,12.98
2019-02-15T03:20:08.816Z,12.60
2019-02-15T03:23:11.852Z,10.93
2019-02-15T03:26:14.384Z,5.75
2019-02-15T03:29:16.907Z,12.05
2019-02-15T03:32:20.253Z,12.68
2019-02-15T03:35:23.753Z,13.13
2019-02-15T03:38:26.283Z,13.58
2019-02-15T03:41:29.329Z,6.65
2019-02-15T03:44:31.854Z,11.93
2019-02-15T03:47:34.381Z,11.80
2019-02-15T03:50:36.655Z,7.90
2019-02-15T03:53:40.460Z,11.65
2019-02-15T03:56:42.990Z,11.55
2019-02-15T03:59:45.778Z,11.63
2019-02-15T04:02:48.816Z,10.65
2019-02-15T04:05:52.109Z,11.88
2019-02-15T04:08:55.404Z,6.17
2019-02-15T04:11:57.935Z,11.57
2019-02-15T04:15:00.967Z,6.15
2019-02-15T04:18:04.012Z,8.38
2019-02-15T04:21:06.535Z,8.98
2019-02-15T04:24:05.524Z,5.45
2019-02-15T04:27:09.034Z,10.82
2019-02-15T04:30:12.082Z,11.20
2019-02-15T04:33:15.121Z,12.05
2019-02-15T04:36:17.648Z,11.85
2019-02-15T04:39:20.185Z,10.60
2019-02-15T04:42:22.957Z,13.18
2019-02-15T04:45:25.739Z,11.30
2019-02-15T04:48:28.270Z,10.82
2019-02-15T04:51:31.311Z,12.40
2019-02-15T04:54:33.834Z,10.70
2019-02-15T04:57:37.129Z,10.63
2019-02-15T05:00:41.452Z,10.55
2019-02-15T05:03:44.501Z,11.65
2019-02-15T05:06:47.630Z,11.12
2019-02-15T05:09:50.572Z,9.83
2019-02-15T05:12:53.353Z,10.78
2019-02-15T05:15:56.136Z,12.10
2019-02-15T05:18:59.951Z,11.00
2019-02-15T05:22:02.473Z,9.95
2019-02-15T05:25:05.264Z,10.90
2019-02-15T05:28:08.946Z,11.25
2019-02-15T05:31:11.080Z,10.40
2019-02-15T05:34:10.140Z,10.78
2019-02-15T05:37:13.064Z,9.78
2019-02-15T05:40:15.849Z,11.35
2019-02-15T05:43:19.403Z,10.88
2019-02-15T05:46:22.194Z,11.15
2019-02-15T05:49:24.722Z,10.38
2019-02-15T05:52:27.247Z,11.88
2019-02-15T05:55:29.773Z,10.88
2019-02-15T05:58:32.557Z,10.03
2019-02-15T06:01:35.089Z,10.00
2019-02-15T06:04:37.613Z,11.22
2019-02-15T06:07:42.188Z,10.40
2019-02-15T06:10:45.737Z,9.55
2019-02-15T06:13:48.521Z,10.58
2019-02-15T06:16:51.305Z,11.45
2019-02-15T06:19:55.370Z,10.25
2019-02-15T06:23:03.020Z,11.03
2019-02-15T06:26:01.826Z,8.80
2019-02-15T06:29:04.488Z,10.60
2019-02-15T06:32:07.017Z,9.68
2019-02-15T06:35:17.224Z,10.40
2019-02-15T06:38:20.264Z,10.23
2019-02-15T06:41:23.052Z,10.45
2019-02-15T06:44:22.290Z,7.47
2019-02-15T06:47:24.777Z,11.43
2019-02-15T06:50:27.564Z,7.15
2019-02-15T06:53:31.376Z,9.55
2019-02-15T06:56:30.952Z,8.78
2019-02-15T06:59:33.635Z,4.78
2019-02-15T07:02:36.398Z,8.25
2019-02-15T07:05:39.430Z,5.00
2019-02-15T07:08:43.239Z,9.50
2019-02-15T07:11:47.048Z,8.10
2019-02-15T07:14:49.578Z,9.58
2019-02-15T07:17:52.618Z,4.30
2019-02-15T07:20:56.682Z,4.60
2019-02-15T07:23:59.467Z,10.28
2019-02-15T07:27:02.254Z,9.60
2019-02-15T07:30:04.525Z,4.62
2019-02-15T07:33:07.312Z,4.78
2019-02-15T07:36:10.090Z,4.35
2019-02-15T07:39:12.877Z,7.90
2019-02-15T07:42:15.400Z,8.85
2019-02-15T07:45:18.086Z,4.85
2019-02-15T07:48:20.482Z,7.37
2019-02-15T07:51:22.990Z,8.78
2019-02-15T07:54:26.024Z,8.98
2019-02-15T07:57:28.811Z,4.83
2019-02-15T08:00:31.849Z,5.05
2019-02-15T08:03:36.424Z,9.78
2019-02-15T08:06:39.207Z,8.53
2019-02-15T08:09:43.792Z,6.65
2019-02-15T08:12:46.570Z,9.08
2019-02-15T08:15:51.585Z,6.47
2019-02-15T08:18:48.552Z,7.78
2019-02-15T08:21:51.344Z,7.08
2019-02-15T08:24:54.388Z,8.40
2019-02-15T08:27:57.671Z,6.42
2019-02-15T08:31:00.718Z,4.72
2019-02-15T08:34:03.762Z,8.68
2019-02-15T08:37:06.550Z,7.53
2019-02-15T08:40:09.323Z,9.38
2019-02-15T08:43:11.849Z,4.70
2019-02-15T08:46:14.892Z,8.20
2019-02-15T08:49:17.675Z,8.85
2019-02-15T08:52:21.480Z,4.58
2019-02-15T08:55:24.009Z,9.63
2019-02-15T08:58:26.794Z,8.05
2019-02-15T09:01:25.740Z,9.20
2019-02-15T09:04:28.779Z,8.48
2019-02-15T09:07:31.312Z,8.00
2019-02-15T09:10:34.347Z,9.65
2019-02-15T09:13:37.384Z,6.53
2019-02-15T09:16:39.917Z,9.63
2019-02-15T09:19:42.695Z,9.40
2019-02-15T09:22:45.484Z,9.20
2019-02-15T09:25:48.267Z,8.75
2019-02-15T09:28:51.560Z,8.10
2019-02-15T09:31:54.601Z,8.73
2019-02-15T09:34:57.390Z,7.47
2019-02-15T09:38:00.174Z,9.68
2019-02-15T09:41:02.953Z,7.60
2019-02-15T09:44:05.994Z,6.62
2019-02-15T09:47:08.782Z,8.30
2019-02-15T09:50:12.232Z,8.15
2019-02-15T09:53:14.090Z,6.75
2019-02-15T09:56:16.873Z,8.90
2019-02-15T09:59:20.685Z,8.48
2019-02-15T10:02:23.463Z,9.30
2019-02-15T10:05:26.503Z,8.33
2019-02-15T10:08:29.031Z,5.78
2019-02-15T10:11:28.242Z,8.78
2019-02-15T10:14:31.274Z,7.58
2019-02-15T10:17:34.323Z,9.90
2019-02-15T10:20:37.352Z,8.53
2019-02-15T10:23:40.137Z,7.42
2019-02-15T10:26:43.176Z,6.60
2019-02-15T10:29:45.961Z,8.33
2019-02-15T10:32:49.002Z,8.03
2019-02-15T10:35:52.041Z,7.60
2019-02-15T10:38:54.569Z,9.35
2019-02-15T10:41:57.352Z,9.08
2019-02-15T10:45:01.162Z,9.48
2019-02-15T10:48:04.970Z,7.65
2019-02-15T10:51:07.752Z,8.33
2019-02-15T10:57:25.096Z,9.43
2019-02-15T11:00:27.887Z,9.03
2019-02-15T11:03:34.008Z,6.95
2019-02-15T11:06:33.361Z,7.62
2019-02-15T11:09:35.984Z,8.43
2019-02-15T11:12:38.508Z,9.43
2019-02-15T11:15:42.567Z,6.90
2019-02-15T11:18:45.608Z,9.15
2019-02-15T11:21:55.825Z,8.75
2019-02-15T11:24:58.605Z,9.10
2019-02-15T11:28:02.154Z,9.70
2019-02-15T11:31:05.961Z,9.50
2019-02-15T11:34:08.536Z,9.83
2019-02-15T11:37:11.273Z,9.18
2019-02-15T11:40:14.064Z,9.35
2019-02-15T11:43:17.109Z,8.78
2019-02-15T11:46:19.881Z,9.63
2019-02-15T11:49:22.669Z,8.85
2019-02-15T11:52:25.449Z,10.25
2019-02-15T11:55:29.000Z,8.85
2019-02-15T11:58:31.786Z,6.78
2019-02-15T12:01:35.341Z,7.12
2019-02-15T12:05:06.280Z,6.03
2019-02-15T12:11:48.456Z,9.73
2019-02-15T12:14:51.497Z,10.18
2019-02-15T12:17:55.052Z,10.20
2019-02-15T12:20:57.833Z,8.18
2019-02-15T12:24:00.364Z,8.23
2019-02-15T12:27:04.684Z,9.98
2019-02-15T12:30:07.472Z,11.50
2019-02-15T12:33:10.250Z,9.65
2019-02-15T12:36:12.777Z,9.13
2019-02-15T12:40:10.602Z,10.23
2019-02-15T12:43:13.129Z,10.58
2019-02-15T12:46:15.677Z,9.43
2019-02-15T12:49:18.705Z,10.28
2019-02-15T12:52:21.226Z,8.00
2019-02-15T12:55:24.266Z,10.32
2019-02-15T12:58:27.306Z,8.60
2019-02-15T13:01:29.832Z,9.60
2019-02-15T13:04:32.623Z,10.50
2019-02-15T13:07:35.401Z,10.18
2019-02-15T13:10:38.440Z,7.75
2019-02-15T13:13:41.228Z,10.30
2019-02-15T13:16:43.760Z,10.55
2019-02-15T13:19:46.535Z,9.25
2019-02-15T13:22:45.486Z,10.38
2019-02-15T13:25:48.277Z,9.20
2019-02-15T13:28:51.051Z,7.97
2019-02-15T13:31:53.836Z,10.03
2019-02-15T13:34:56.625Z,8.90
2019-02-15T13:37:59.658Z,7.92
2019-02-15T13:41:03.474Z,9.40
2019-02-15T13:44:06.249Z,8.40
2019-02-15T13:47:09.032Z,7.60
2019-02-15T13:50:11.564Z,9.43
2019-02-15T13:53:14.356Z,8.98
2019-02-15T13:56:17.131Z,7.80
2019-02-15T13:59:19.686Z,9.58
2019-02-15T14:02:23.464Z,6.90
2019-02-15T14:05:25.991Z,8.45
2019-02-15T14:08:25.193Z,8.70
2019-02-15T14:11:27.721Z,8.25
2019-02-15T14:14:30.504Z,7.55
2019-02-15T14:17:33.070Z,5.42
2019-02-15T14:20:35.815Z,8.28
2019-02-15T14:23:38.856Z,8.25
2019-02-15T14:26:37.769Z,4.70
2019-02-15T14:29:41.869Z,5.58
2019-02-15T14:32:42.192Z,6.00
2019-02-15T14:35:45.415Z,7.20
2019-02-15T14:38:48.168Z,8.70
2019-02-15T14:41:51.723Z,5.00
2019-02-15T14:44:54.508Z,8.63
2019-02-15T14:47:55.203Z,9.05
2019-02-15T14:50:59.334Z,8.38
2019-02-15T14:54:02.100Z,7.78
2019-02-15T14:57:04.615Z,8.15
2019-02-15T15:00:08.433Z,8.35
2019-02-15T15:03:11.463Z,7.90
2019-02-15T15:06:13.992Z,7.20
2019-02-15T15:09:16.777Z,7.03
2019-02-15T15:12:20.074Z,9.48
2019-02-15T15:15:22.600Z,9.58
2019-02-15T15:18:25.386Z,7.42
2019-02-15T15:21:28.171Z,6.40
2019-02-15T15:24:33.769Z,6.90
2019-02-15T15:27:38.096Z,5.90
2019-02-15T15:30:41.901Z,7.60
2019-02-15T15:33:44.681Z,8.63
2019-02-15T15:36:49.567Z,8.55
2019-02-15T15:39:51.273Z,7.17
2019-02-15T15:42:54.060Z,5.85
2019-02-15T15:45:57.611Z,8.55
2019-02-15T15:49:00.397Z,9.10
2019-02-15T15:52:03.434Z,8.95
2019-02-15T15:55:06.217Z,9.23
2019-02-15T16:01:23.565Z,8.20
2019-02-15T16:04:26.345Z,8.83
2019-02-15T16:07:29.912Z,9.20
2019-02-15T16:10:32.437Z,7.95
2019-02-15T16:13:36.234Z,8.23
2019-02-15T16:16:39.017Z,8.20
2019-02-15T16:19:49.440Z,7.42
2019-02-15T16:22:45.610Z,8.73
2019-02-15T16:25:48.391Z,7.22
2019-02-15T16:28:51.183Z,8.23
2019-02-15T16:31:53.965Z,8.63
2019-02-15T16:34:57.258Z,9.45
2019-02-15T16:37:59.784Z,8.40
2019-02-15T16:41:02.311Z,8.83
2019-02-15T16:44:05.868Z,8.25
2019-02-15T16:47:08.909Z,8.50
2019-02-15T16:50:11.954Z,10.10
2019-02-15T16:53:14.727Z,8.85
2019-02-15T16:56:17.515Z,9.48
2019-02-15T16:59:20.552Z,9.23
2019-02-15T17:02:23.598Z,10.10
2019-02-15T17:05:26.378Z,9.38
2019-02-15T17:08:32.746Z,9.15
2019-02-15T17:11:35.276Z,8.85
2019-02-15T17:14:39.851Z,9.13
2019-02-15T17:17:42.635Z,8.73
2019-02-15T17:20:45.420Z,8.35
2019-02-15T17:23:48.457Z,9.75
2019-02-15T17:26:50.986Z,8.85
2019-02-15T17:29:53.519Z,8.80
2019-02-15T17:32:56.304Z,8.93
2019-02-15T17:36:00.106Z,10.08
2019-02-15T17:39:05.968Z,9.63
2019-02-15T17:42:08.746Z,12.00
2019-02-15T17:45:11.572Z,10.65
2019-02-15T17:48:15.849Z,9.53
2019-02-15T17:51:18.891Z,11.15
2019-02-15T17:54:21.678Z,10.18
2019-02-15T17:57:24.460Z,10.93
2019-02-15T18:00:27.244Z,11.50
2019-02-15T18:03:29.776Z,11.08
2019-02-15T18:06:32.555Z,13.13
2019-02-15T18:09:35.337Z,14.47
2019-02-15T18:12:38.122Z,14.75
2019-02-15T18:15:40.907Z,12.15
2019-02-15T18:18:43.948Z,14.47
2019-02-15T18:21:46.475Z,12.15
2019-02-15T18:24:49.258Z,16.32
2019-02-15T18:27:53.067Z,15.23
2019-02-15T18:30:55.851Z,14.15
2019-02-15T18:33:59.403Z,13.53
2019-02-15T18:37:02.189Z,12.73
2019-02-15T18:40:04.969Z,13.88
2019-02-15T18:43:08.526Z,12.68
2019-02-15T18:46:11.308Z,17.17
2019-02-15T18:49:19.283Z,15.40
2019-02-15T18:52:16.618Z,17.32
2019-02-15T18:55:19.661Z,15.55
2019-02-15T18:58:22.190Z,15.40
2019-02-15T19:01:25.994Z,16.50
2019-02-15T19:04:29.038Z,19.65
2019-02-15T19:07:32.845Z,18.80
2019-02-15T19:10:35.627Z,19.75
2019-02-15T19:13:38.413Z,21.90
2019-02-15T19:16:48.362Z,20.65
2019-02-15T19:19:51.920Z,21.12
2019-02-15T19:22:54.442Z,19.73
2019-02-15T19:25:57.224Z,19.57
2019-02-15T19:29:00.011Z,22.45
2019-02-15T19:32:03.052Z,20.27
2019-02-15T19:35:07.625Z,17.95
2019-02-15T19:38:10.416Z,19.30
2019-02-15T19:41:13.451Z,19.73
2019-02-15T19:44:16.499Z,20.30
2019-02-15T19:47:19.279Z,20.90
2019-02-15T19:50:22.320Z,20.72
2019-02-15T19:53:25.132Z,21.68
2019-02-15T19:56:35.306Z,21.52
2019-02-15T19:59:37.833Z,20.00
2019-02-15T20:02:40.622Z,21.23
2019-02-15T20:05:43.152Z,21.23
2019-02-15T20:08:45.934Z,21.87
2019-02-15T20:11:48.716Z,19.67
2019-02-15T20:14:51.760Z,17.70
2019-02-15T20:17:56.590Z,20.48
2019-02-15T20:20:59.123Z,19.07
2019-02-15T20:23:58.477Z,19.12
2019-02-15T20:27:01.360Z,13.75
2019-02-15T20:30:05.422Z,19.05
2019-02-15T20:33:15.371Z,19.55
2019-02-15T20:36:18.161Z,19.98
2019-02-15T20:39:20.682Z,16.12
2019-02-15T20:42:23.723Z,11.60
2019-02-15T20:45:26.768Z,16.40
2019-02-15T20:48:29.546Z,14.65
2019-02-15T20:51:43.340Z,10.45
2019-02-15T20:54:46.378Z,17.80
2019-02-15T20:57:50.457Z,17.42
2019-02-15T21:00:56.198Z,18.35
2019-02-15T21:03:57.293Z,12.43
2019-02-15T21:07:00.075Z,16.05
2019-02-15T21:10:02.602Z,21.45
2019-02-15T21:13:05.131Z,20.30
2019-02-15T21:16:07.658Z,19.35
2019-02-15T21:19:10.187Z,20.60
2019-02-15T21:22:12.975Z,19.95
2019-02-15T21:25:15.760Z,20.57
2019-02-15T21:28:18.552Z,24.90
2019-02-15T21:31:22.604Z,16.07
2019-02-15T21:34:25.413Z,21.15
2019-02-15T21:37:28.170Z,19.23
2019-02-15T21:40:30.445Z,20.60
2019-02-15T21:43:33.226Z,19.17
2019-02-15T21:46:38.174Z,19.52
2019-02-15T21:49:40.992Z,15.85
2019-02-15T21:52:44.462Z,18.15
2019-02-15T21:55:42.604Z,18.17
2019-02-15T21:58:45.354Z,19.98
2019-02-15T22:01:47.625Z,18.27
2019-02-15T22:04:52.462Z,18.10
2019-02-15T22:07:55.241Z,19.07
2019-02-15T22:10:58.284Z,17.32
2019-02-15T22:14:00.811Z,20.32
2019-02-15T22:17:03.596Z,18.23
2019-02-15T22:20:06.120Z,17.60
2019-02-15T22:23:20.427Z,18.20
2019-02-15T22:26:22.960Z,18.77
2019-02-15T22:29:25.551Z,17.90
2019-02-15T22:32:28.265Z,17.80
2019-02-15T22:35:39.753Z,16.60
2019-02-15T22:38:45.609Z,15.78
2019-02-15T22:41:48.906Z,10.32
2019-02-15T22:44:52.461Z,17.02
2019-02-15T22:47:54.998Z,17.82
2019-02-15T22:50:57.771Z,16.82
2019-02-15T22:54:01.328Z,16.12
2019-02-15T22:57:03.849Z,9.83
2019-02-15T23:00:12.663Z,17.25
2019-02-15T23:03:09.679Z,16.27
2019-02-15T23:06:14.506Z,16.45
2019-02-15T23:09:17.292Z,13.93
2019-02-15T23:12:20.076Z,15.78
2019-02-15T23:15:23.121Z,15.23
2019-02-15T23:18:25.646Z,14.60
2019-02-15T23:21:28.685Z,15.20
2019-02-15T23:24:31.723Z,15.83
2019-02-15T23:27:34.508Z,15.35
2019-02-15T23:30:37.032Z,8.93
2019-02-15T23:33:39.821Z,9.40
2019-02-15T23:36:42.861Z,16.07
2019-02-15T23:39:45.386Z,16.10
2019-02-15T23:42:48.171Z,16.12
2019-02-15T23:45:50.700Z,15.30
2019-02-15T23:48:53.484Z,10.40
2019-02-15T23:51:56.267Z,16.12
2019-02-15T23:54:58.794Z,16.05
2019-02-15T23:58:01.835Z,16.55
